Time;durP1;ratioP1;P1;durP2;ratioP2;P2;SDS_P1;SDS_P2;PMS_P1;PMS_P2;Temp;Humidity;BMP_temperature;BMP_pressure;BME280_temperature;BME280_humidity;BME280_pressure;Samples;Min_cycle;Max_cycle;Signal;HPM_P1;HPM_P2
2022/10/25 13:44:52;;;;;;;6.80;2.50;;;18.80;99.90;;;;;;5108822;27;1957807;-83
2022/10/25 13:47:40;;;;;;;6.55;2.50;;;;;;;;;;5171140;27;20038;-82
2022/10/25 13:50:30;;;;;;;5.13;2.10;;;;;;;;;;5164502;27;20037;-83
2022/10/25 13:53:25;;;;;;;6.75;2.63;;;;;;;;;;5155452;27;20033;-82
2022/10/25 13:56:15;;;;;;;6.30;2.45;;;;;;;;;;5151093;27;20079;-82
2022/10/25 13:59:00;;;;;;;8.98;3.55;;;;;;;;;;5146382;27;20037;-83
2022/10/25 14:01:45;;;;;;;7.10;2.50;;;;;;;;;;5170648;27;20034;-81
2022/10/25 14:04:34;;;;;;;4.03;2.28;;;;;;;;;;5155124;27;20075;-84
2022/10/25 14:07:45;;;;;;;9.07;4.68;;;;;;;;;;5171234;27;20426;-82
2022/10/25 14:10:34;;;;;;;8.18;2.60;;;16.60;99.90;;;;;;5171239;27;20029;-83
2022/10/25 14:13:21;;;;;;;6.10;2.60;;;;;;;;;;5171373;27;20049;-83
2022/10/25 14:16:13;;;;;;;4.85;2.38;;;;;;;;;;5158169;27;20065;-83
2022/10/25 14:19:21;;;;;;;9.32;2.25;;;16.20;99.90;;;;;;5154944;27;20542;-82
2022/10/25 14:22:35;;;;;;;7.55;2.42;;;;;;;;;;5155276;27;20029;-83
2022/10/25 14:25:20;;;;;;;7.75;3.28;;;;;;;;;;5136433;27;20506;-82
2022/10/25 14:28:06;;;;;;;7.90;2.75;;;;;;;;;;5169886;27;20034;-83
2022/10/25 14:30:56;;;;;;;6.38;2.90;;;16.00;99.90;;;;;;5163848;27;20118;-83
2022/10/25 14:33:48;;;;;;;4.95;2.63;;;;;;;;;;5154930;27;20406;-83
2022/10/25 14:36:37;;;;;;;7.53;2.88;;;;;;;;;;5155066;27;20421;-83
2022/10/25 14:39:26;;;;;;;9.27;3.05;;;;;;;;;;5169953;27;20041;-82
2022/10/25 14:42:15;;;;;;;9.85;3.15;;;15.90;99.90;;;;;;5154516;27;20439;-82
2022/10/25 14:44:59;;;;;;;9.75;3.47;;;;;;;;;;5170267;27;20079;-82
2022/10/25 14:47:44;;;;;;;9.02;2.97;;;;;;;;;;5138772;27;20038;-83
2022/10/25 14:50:28;;;;;;;7.43;3.05;;;;;;;;;;5152919;27;20034;-82
2022/10/25 14:53:17;;;;;;;6.32;2.50;;;;;;;;;;5170368;27;20554;-84
2022/10/25 14:56:03;;;;;;;7.18;2.70;;;;;;;;;;5154102;27;20451;-85
2022/10/25 14:58:48;;;;;;;7.70;2.83;;;;;;;;;;5132720;27;20034;-85
2022/10/25 15:01:33;;;;;;;10.32;3.30;;;;;;;;;;5139599;27;20045;-83
2022/10/25 15:04:24;;;;;;;9.60;3.50;;;;;;;;;;5155741;27;20048;-83
2022/10/25 15:07:42;;;;;;;6.63;2.70;;;;;;;;;;5156432;27;20034;-83
2022/10/25 15:10:29;;;;;;;8.07;2.65;;;;;;;;;;5100610;27;20054;-83
2022/10/25 15:13:15;;;;;;;7.97;2.70;;;;;;;;;;5155816;27;20489;-82
2022/10/25 15:16:22;;;;;;;6.10;2.92;;;15.60;99.90;;;;;;5154035;27;20500;-82
2022/10/25 15:19:10;;;;;;;6.22;2.58;;;;;;;;;;5140338;27;20126;-82
2022/10/25 15:22:14;;;;;;;6.30;2.58;;;15.60;99.90;;;;;;5155447;27;20072;-82
2022/10/25 15:24:59;;;;;;;5.35;2.35;;;;;;;;;;5145721;27;20098;-82
2022/10/25 15:27:44;;;;;;;8.77;2.78;;;;;;;;;;5155105;27;20080;-84
2022/10/25 15:30:35;;;;;;;8.00;2.42;;;15.50;99.90;;;;;;5140384;27;20060;-82
2022/10/25 15:33:30;;;;;;;6.35;2.28;;;;;;;;;;5151136;27;20497;-83
2022/10/25 15:36:21;;;;;;;8.35;2.78;;;15.50;99.90;;;;;;5139859;27;20152;-83
2022/10/25 15:39:27;;;;;;;6.03;2.78;;;15.50;99.90;;;;;;5139474;27;20086;-83
2022/10/25 15:42:12;;;;;;;5.80;2.20;;;15.40;99.90;;;;;;5133825;27;20056;-82
2022/10/25 15:44:57;;;;;;;9.98;2.53;;;;;;;;;;5135572;27;20061;-83
2022/10/25 15:47:41;;;;;;;7.50;2.53;;;;;;;;;;5155781;27;20107;-84
2022/10/25 15:50:26;;;;;;;9.32;3.17;;;;;;;;;;5154815;27;20034;-84
2022/10/25 15:53:11;;;;;;;4.97;2.50;;;;;;;;;;5154364;27;20083;-84
2022/10/25 15:55:56;;;;;;;6.65;2.80;;;;;;;;;;5135904;27;20037;-85
2022/10/25 15:58:40;;;;;;;5.43;2.22;;;;;;;;;;5145138;27;20095;-83
2022/10/25 16:01:25;;;;;;;6.75;2.45;;;;;;;;;;5147158;27;20083;-84
2022/10/25 16:04:14;;;;;;;9.32;2.40;;;15.10;99.90;;;;;;5153695;27;20041;-83
2022/10/25 16:06:59;;;;;;;8.30;2.22;;;;;;;;;;5153533;27;20417;-83
2022/10/25 16:09:43;;;;;;;6.65;2.55;;;;;;;;;;5124420;27;20068;-83
2022/10/25 16:12:31;;;;;;;5.15;2.47;;;14.90;99.90;;;;;;5138935;27;20045;-84
2022/10/25 16:15:17;;;;;;;8.27;2.80;;;14.80;99.90;;;;;;5139036;27;20678;-84
2022/10/25 16:18:01;;;;;;;7.47;2.92;;;;;;;;;;5154236;27;20030;-84
2022/10/25 16:20:46;;;;;;;10.73;2.67;;;;;;;;;;5138969;27;20076;-83
2022/10/25 16:23:30;;;;;;;9.60;3.05;;;;;;;;;;5110891;27;20127;-84
2022/10/25 16:26:27;;;;;;;10.48;3.63;;;14.50;99.90;;;;;;5135941;27;20099;-84
2022/10/25 16:29:19;;;;;;;6.72;2.85;;;14.40;99.90;;;;;;5138304;27;20033;-84
2022/10/25 16:32:04;;;;;;;7.80;3.47;;;;;;;;;;5146679;27;20374;-84
2022/10/25 16:34:49;;;;;;;11.10;3.40;;;;;;;;;;5138837;27;20469;-83
2022/10/25 16:37:34;;;;;;;12.95;4.20;;;;;;;;;;5154370;27;20045;-84
2022/10/25 16:40:20;;;;;;;8.63;3.78;;;;;;;;;;5147542;27;20079;-83
2022/10/25 16:43:04;;;;;;;11.35;4.63;;;;;;;;;;5137986;27;20158;-83
2022/10/25 16:45:49;;;;;;;7.28;4.15;;;;;;;;;;5138769;27;20655;-83
2022/10/25 16:48:35;;;;;;;8.25;4.10;;;;;;;;;;5154196;27;20394;-83
2022/10/25 16:51:20;;;;;;;8.85;3.67;;;;;;;;;;5136107;27;20049;-83
2022/10/25 16:54:05;;;;;;;6.90;3.67;;;;;;;;;;5137766;27;20061;-84
2022/10/25 16:56:49;;;;;;;9.07;3.85;;;;;;;;;;5133114;27;20095;-83
2022/10/25 16:59:34;;;;;;;9.10;3.88;;;;;;;;;;5122772;27;20493;-83
2022/10/25 17:02:21;;;;;;;7.95;3.75;;;14.20;99.90;;;;;;5133629;27;20048;-83
2022/10/25 17:05:06;;;;;;;12.50;3.92;;;14.10;99.90;;;;;;5137023;27;20453;-84
2022/10/25 17:07:51;;;;;;;11.25;3.67;;;;;;;;;;5149930;27;20034;-83
2022/10/25 17:10:37;;;;;;;9.60;4.60;;;;;;;;;;5152874;27;20118;-83
2022/10/25 17:13:21;;;;;;;10.18;4.07;;;;;;;;;;5153277;27;20091;-84
2022/10/25 17:16:07;;;;;;;10.43;5.50;;;;;;;;;;5122156;27;20113;-83
2022/10/25 17:18:54;;;;;;;10.38;4.65;;;13.80;99.90;;;;;;5153109;27;20030;-83
2022/10/25 17:21:38;;;;;;;10.65;4.32;;;;;;;;;;5137680;27;20174;-84
2022/10/25 17:24:23;;;;;;;11.23;4.63;;;;;;;;;;5122769;27;20064;-85
2022/10/25 17:27:08;;;;;;;9.18;4.65;;;;;;;;;;5152325;27;20037;-84
2022/10/25 17:29:52;;;;;;;9.20;5.32;;;;;;;;;;5134979;27;20394;-84
2022/10/25 17:32:37;;;;;;;8.80;4.18;;;;;;;;;;5120987;27;20067;-83
2022/10/25 17:35:22;;;;;;;10.88;4.47;;;;;;;;;;5151361;27;20447;-83
2022/10/25 17:38:09;;;;;;;9.20;4.32;;;;;;;;;;5136972;27;20501;-83
2022/10/25 17:40:54;;;;;;;8.98;5.18;;;;;;;;;;5113276;27;20034;-83
2022/10/25 17:43:40;;;;;;;9.85;4.82;;;13.50;99.90;;;;;;5137532;27;20089;-84
2022/10/25 17:46:29;;;;;;;14.68;4.82;;;;;;;;;;5137448;27;20493;-83
2022/10/25 17:49:13;;;;;;;12.27;5.72;;;;;;;;;;5131220;27;20419;-84
2022/10/25 17:51:58;;;;;;;9.05;4.90;;;;;;;;;;5133478;27;20046;-83
2022/10/25 17:54:42;;;;;;;15.10;5.95;;;;;;;;;;5123370;27;20041;-83
2022/10/25 17:57:27;;;;;;;8.65;5.03;;;;;;;;;;5137406;27;20037;-84
2022/10/25 18:00:12;;;;;;;14.02;6.47;;;;;;;;;;5132645;27;20471;-83
2022/10/25 18:02:59;;;;;;;8.88;5.95;;;;;;;;;;5149511;27;20034;-84
2022/10/25 18:05:43;;;;;;;10.68;5.90;;;;;;;;;;5148911;27;20130;-85
2022/10/25 18:08:28;;;;;;;10.25;5.50;;;;;;;;;;5145540;27;20041;-84
2022/10/25 18:11:20;;;;;;;9.95;6.03;;;13.50;99.90;;;;;;5140190;27;20098;-84
2022/10/25 18:14:05;;;;;;;11.48;6.25;;;;;;;;;;5124776;27;20037;-85
2022/10/25 18:16:50;;;;;;;9.75;6.32;;;;;;;;;;5148860;27;20134;-84
2022/10/25 18:19:35;;;;;;;12.05;6.85;;;;;;;;;;5133998;27;20049;-84
2022/10/25 18:22:20;;;;;;;13.55;7.25;;;;;;;;;;5147107;27;20042;-84
2022/10/25 18:25:05;;;;;;;13.77;6.75;;;;;;;;;;5149227;27;20038;-84
2022/10/25 18:27:50;;;;;;;12.45;6.80;;;;;;;;;;5148451;27;20041;-84
2022/10/25 18:30:34;;;;;;;14.40;6.70;;;;;;;;;;5134971;27;20125;-84
2022/10/25 18:33:22;;;;;;;14.80;7.07;;;;;;;;;;5136677;27;20041;-84
2022/10/25 18:36:16;;;;;;;10.57;7.03;;;;;;;;;;5152437;27;20677;-85
2022/10/25 18:39:01;;;;;;;9.57;6.70;;;;;;;;;;5152686;27;20091;-84
2022/10/25 18:41:46;;;;;;;13.98;7.38;;;;;;;;;;5152743;27;20041;-83
2022/10/25 18:44:31;;;;;;;11.43;6.88;;;;;;;;;;5136557;27;20062;-84
2022/10/25 18:47:15;;;;;;;12.63;7.57;;;;;;;;;;5110245;27;20080;-84
2022/10/25 18:50:00;;;;;;;9.85;6.57;;;;;;;;;;5122861;27;20049;-84
2022/10/25 18:52:44;;;;;;;11.40;6.18;;;;;;;;;;5136148;27;20205;-84
2022/10/25 18:55:29;;;;;;;15.60;6.65;;;;;;;;;;5136599;27;20090;-84
2022/10/25 18:58:14;;;;;;;11.73;6.70;;;;;;;;;;5110568;27;20044;-85
2022/10/25 19:01:05;;;;;;;10.90;6.80;;;;;;;;;;5152766;27;20037;-84
2022/10/25 19:03:50;;;;;;;11.57;6.68;;;;;;;;;;5150625;27;20385;-84
2022/10/25 19:06:35;;;;;;;10.05;6.80;;;;;;;;;;5152142;27;20406;-84
2022/10/25 19:09:19;;;;;;;16.20;6.75;;;;;;;;;;5139394;27;20086;-84
2022/10/25 19:12:04;;;;;;;13.05;7.25;;;;;;;;;;5136985;27;20546;-84
2022/10/25 19:14:49;;;;;;;14.13;7.00;;;;;;;;;;5121335;27;20084;-85
2022/10/25 19:17:34;;;;;;;16.58;6.40;;;;;;;;;;5150376;27;20091;-85
2022/10/25 19:20:18;;;;;;;12.20;7.05;;;;;;;;;;5134747;27;20110;-84
2022/10/25 19:23:03;;;;;;;13.73;6.43;;;;;;;;;;5135506;27;20203;-83
2022/10/25 19:25:48;;;;;;;11.43;6.72;;;;;;;;;;5130712;27;20045;-84
2022/10/25 19:28:33;;;;;;;13.82;7.05;;;;;;;;;;5134715;27;20073;-84
2022/10/25 19:31:17;;;;;;;13.07;6.15;;;;;;;;;;5119365;27;20510;-86
2022/10/25 19:34:02;;;;;;;15.15;7.13;;;;;;;;;;5122236;27;20399;-84
2022/10/25 19:36:47;;;;;;;27.25;7.80;;;;;;;;;;5142482;27;20103;-83
2022/10/25 19:39:32;;;;;;;13.18;6.53;;;;;;;;;;5114243;27;20045;-85
2022/10/25 19:42:16;;;;;;;12.55;6.38;;;;;;;;;;5149386;27;20030;-85
2022/10/25 19:45:01;;;;;;;10.63;6.72;;;;;;;;;;5148455;27;20068;-83
2022/10/25 19:47:48;;;;;;;14.57;6.40;;;;;;;;;;5151834;27;20082;-84
2022/10/25 19:50:33;;;;;;;10.82;6.15;;;;;;;;;;5136142;27;20122;-84
2022/10/25 19:53:18;;;;;;;14.02;7.43;;;;;;;;;;5151469;27;20493;-84
2022/10/25 19:56:06;;;;;;;13.07;6.85;;;;;;;;;;5104325;27;20037;-83
2022/10/25 19:58:50;;;;;;;17.83;7.68;;;;;;;;;;5151815;27;20025;-83
2022/10/25 20:01:35;;;;;;;15.23;7.13;;;;;;;;;;5135377;27;20045;-84
2022/10/25 20:04:20;;;;;;;13.90;7.78;;;;;;;;;;5139323;27;20071;-85
2022/10/25 20:07:04;;;;;;;14.68;6.70;;;;;;;;;;5136007;27;20064;-83
2022/10/25 20:09:49;;;;;;;11.32;6.45;;;;;;;;;;5151621;27;20037;-83
2022/10/25 20:12:33;;;;;;;11.60;5.82;;;;;;;;;;5135274;27;20053;-83
2022/10/25 20:15:18;;;;;;;11.57;8.07;;;;;;;;;;5135152;27;20034;-83
2022/10/25 20:18:02;;;;;;;9.65;5.72;;;;;;;;;;5134237;27;20037;-84
2022/10/25 20:20:47;;;;;;;10.40;5.40;;;;;;;;;;5148924;27;20083;-83
2022/10/25 20:23:32;;;;;;;11.65;6.60;;;;;;;;;;5134942;27;20080;-83
2022/10/25 20:26:22;;;;;;;8.50;5.47;;;12.20;99.90;;;;;;5151299;27;20497;-84
2022/10/25 20:29:08;;;;;;;13.30;6.70;;;;;;;;;;5131161;27;20033;-84
2022/10/25 20:31:52;;;;;;;11.35;6.50;;;;;;;;;;5151098;27;20589;-84
2022/10/25 20:34:37;;;;;;;11.80;6.32;;;;;;;;;;5134941;27;20095;-84
2022/10/25 20:37:21;;;;;;;11.13;5.85;;;;;;;;;;5150866;27;20038;-83
2022/10/25 20:40:06;;;;;;;11.27;5.82;;;;;;;;;;5134799;27;20110;-83
2022/10/25 20:42:51;;;;;;;15.48;6.45;;;;;;;;;;5148021;27;20084;-84
2022/10/25 20:45:36;;;;;;;18.33;6.57;;;;;;;;;;5140538;27;20049;-85
2022/10/25 20:48:20;;;;;;;13.45;5.95;;;;;;;;;;5115322;27;20227;-83
2022/10/25 20:51:05;;;;;;;11.88;5.78;;;;;;;;;;5137696;27;20033;-82
2022/10/25 20:53:50;;;;;;;15.77;6.05;;;;;;;;;;5137607;27;20122;-83
2022/10/25 20:56:36;;;;;;;13.65;5.35;;;;;;;;;;5131814;27;20496;-84
2022/10/25 20:59:20;;;;;;;11.10;5.40;;;;;;;;;;5138544;27;20485;-82
2022/10/25 21:02:05;;;;;;;14.10;4.97;;;;;;;;;;5153751;27;20034;-83
2022/10/25 21:04:49;;;;;;;12.65;5.45;;;;;;;;;;5137654;27;20038;-83
2022/10/25 21:07:34;;;;;;;12.43;5.82;;;;;;;;;;5124664;27;20550;-83
2022/10/25 21:10:18;;;;;;;11.48;6.18;;;;;;;;;;5138499;27;20110;-83
2022/10/25 21:13:03;;;;;;;10.48;5.55;;;;;;;;;;5154321;27;20072;-83
2022/10/25 21:15:47;;;;;;;15.30;6.30;;;;;;;;;;5153284;27;20065;-83
2022/10/25 21:18:32;;;;;;;12.55;5.93;;;;;;;;;;5153664;27;20034;-84
2022/10/25 21:21:18;;;;;;;11.27;6.03;;;;;;;;;;5153715;27;20065;-83
2022/10/25 21:24:04;;;;;;;17.38;5.53;;;;;;;;;;5123749;27;20041;-83
2022/10/25 21:26:50;;;;;;;13.35;5.63;;;;;;;;;;5153431;27;20134;-83
2022/10/25 21:29:34;;;;;;;18.40;7.68;;;;;;;;;;5137866;27;20513;-83
2022/10/25 21:32:19;;;;;;;10.50;6.40;;;;;;;;;;5117841;27;20038;-83
2022/10/25 21:35:03;;;;;;;11.15;6.35;;;;;;;;;;5154107;27;20042;-83
2022/10/25 21:37:48;;;;;;;12.23;6.28;;;;;;;;;;5153004;27;20100;-83
2022/10/25 21:40:32;;;;;;;11.13;5.68;;;;;;;;;;5138003;27;20559;-85
2022/10/25 21:43:17;;;;;;;14.98;6.22;;;;;;;;;;5137732;27;20058;-83
2022/10/25 21:46:05;;;;;;;11.77;6.50;;;;;;;;;;5137529;27;20062;-83
2022/10/25 21:48:51;;;;;;;11.30;6.45;;;;;;;;;;5122984;27;20042;-83
2022/10/25 21:51:35;;;;;;;15.20;6.05;;;;;;;;;;5137444;27;20501;-84
2022/10/25 21:54:23;;;;;;;11.32;6.03;;;;;;;;;;5137895;27;20046;-83
2022/10/25 21:57:08;;;;;;;13.75;6.22;;;;;;;;;;5137383;27;20398;-83
2022/10/25 21:59:52;;;;;;;13.93;6.57;;;;;;;;;;5137285;27;20431;-83
2022/10/25 22:02:37;;;;;;;14.00;6.40;;;;;;;;;;5125515;27;20119;-84
2022/10/25 22:05:21;;;;;;;16.13;6.35;;;;;;;;;;5155544;27;20042;-83
2022/10/25 22:08:06;;;;;;;13.25;6.10;;;;;;;;;;5157874;27;20402;-83
2022/10/25 22:11:00;;;;;;;12.77;6.43;;;;;;;;;;5126932;27;20034;-83
2022/10/25 22:13:44;;;;;;;13.70;6.25;;;;;;;;;;5140800;27;20523;-84
2022/10/25 22:16:29;;;;;;;19.13;6.50;;;;;;;;;;5141808;27;20067;-84
2022/10/25 22:19:16;;;;;;;11.65;6.45;;;;;;;;;;5141645;27;20114;-84
2022/10/25 22:22:01;;;;;;;13.75;6.45;;;;;;;;;;5141055;27;20136;-84
2022/10/25 22:24:45;;;;;;;10.10;5.47;;;;;;;;;;5140662;27;20069;-84
2022/10/25 22:27:30;;;;;;;10.38;5.88;;;;;;;;;;5141196;27;20095;-84
2022/10/25 22:30:14;;;;;;;14.27;7.10;;;;;;;;;;5141707;27;20079;-84
2022/10/25 22:32:58;;;;;;;15.85;6.40;;;;;;;;;;5141036;27;20442;-84
2022/10/25 22:35:43;;;;;;;12.65;6.40;;;;;;;;;;5156499;27;20041;-84
2022/10/25 22:38:28;;;;;;;10.15;5.90;;;;;;;;;;5141261;27;20034;-85
2022/10/25 22:41:14;;;;;;;17.33;8.43;;;;;;;;;;5141306;27;20386;-84
2022/10/25 22:43:59;;;;;;;11.90;6.45;;;;;;;;;;5140674;27;20111;-84
2022/10/25 22:46:44;;;;;;;12.18;6.05;;;;;;;;;;5140429;27;20496;-85
2022/10/25 22:49:29;;;;;;;13.52;6.65;;;;;;;;;;5141361;27;20442;-84
2022/10/25 22:52:13;;;;;;;14.05;7.28;;;;;;;;;;5156416;27;20071;-84
2022/10/25 22:54:58;;;;;;;13.65;6.93;;;;;;;;;;5140357;27;20083;-84
2022/10/25 22:57:43;;;;;;;15.98;7.88;;;;;;;;;;5140883;27;20042;-85
2022/10/25 23:00:27;;;;;;;17.23;7.18;;;;;;;;;;5156406;27;20034;-84
2022/10/25 23:03:12;;;;;;;20.30;7.20;;;;;;;;;;5141173;27;20042;-84
2022/10/25 23:06:01;;;;;;;13.70;7.07;;;;;;;;;;5156020;27;20046;-85
2022/10/25 23:08:45;;;;;;;13.18;7.32;;;;;;;;;;5140506;27;20038;-83
2022/10/25 23:11:31;;;;;;;13.88;7.13;;;;;;;;;;5140711;27;20041;-81
2022/10/25 23:14:16;;;;;;;12.88;6.60;;;;;;;;;;5140511;27;20492;-82
2022/10/25 23:17:00;;;;;;;11.65;6.35;;;;;;;;;;5139121;27;20037;-81
2022/10/25 23:19:45;;;;;;;20.25;8.65;;;;;;;;;;5140687;27;20038;-82
2022/10/25 23:22:29;;;;;;;11.55;6.53;;;;;;;;;;5155977;27;20070;-81
2022/10/25 23:25:14;;;;;;;16.70;6.68;;;;;;;;;;5126004;27;20057;-83
2022/10/25 23:27:59;;;;;;;15.05;7.13;;;;;;;;;;5142337;27;20523;-82
2022/10/25 23:30:43;;;;;;;12.77;6.57;;;;;;;;;;5140055;27;20048;-82
2022/10/25 23:33:28;;;;;;;13.07;8.25;;;;;;;;;;5140232;27;20068;-82
2022/10/25 23:36:18;;;;;;;14.25;6.60;;;;;;;;;;5155337;27;20039;-82
2022/10/25 23:39:03;;;;;;;13.00;7.18;;;;;;;;;;5139396;27;20061;-83
2022/10/25 23:41:50;;;;;;;12.88;6.40;;;;;;;;;;5155961;27;20042;-82
2022/10/25 23:44:35;;;;;;;14.85;7.35;;;;;;;;;;5139478;27;20452;-82
2022/10/25 23:47:19;;;;;;;12.80;6.95;;;;;;;;;;5140202;27;20132;-82
2022/10/25 23:50:04;;;;;;;16.65;6.75;;;;;;;;;;5141687;27;20054;-82
2022/10/25 23:52:49;;;;;;;14.00;7.05;;;;;;;;;;5139899;27;20111;-82
2022/10/25 23:55:33;;;;;;;11.88;6.88;;;;;;;;;;5125502;27;20037;-82
2022/10/25 23:58:18;;;;;;;14.55;7.22;;;;;;;;;;5139408;27;20065;-82
